sensor_id;sensor_type;location;lat;lon;timestamp;temperature;humidity
16627;DHT22;8427;52.204;7.202;2023-07-29T00:00:53;18.20;86.90
16627;DHT22;8427;52.204;7.202;2023-07-29T00:03:22;18.20;86.80
16627;DHT22;8427;52.204;7.202;2023-07-29T00:05:51;18.10;86.80
16627;DHT22;8427;52.204;7.202;2023-07-29T00:08:19;18.00;87.20
16627;DHT22;8427;52.204;7.202;2023-07-29T00:10:47;18.10;87.20
16627;DHT22;8427;52.204;7.202;2023-07-29T00:13:14;18.00;87.30
16627;DHT22;8427;52.204;7.202;2023-07-29T00:15:44;17.90;87.20
16627;DHT22;8427;52.204;7.202;2023-07-29T00:18:12;17.80;87.30
16627;DHT22;8427;52.204;7.202;2023-07-29T00:20:40;17.80;87.50
16627;DHT22;8427;52.204;7.202;2023-07-29T00:23:09;17.70;87.70
16627;DHT22;8427;52.204;7.202;2023-07-29T00:25:37;17.60;87.90
16627;DHT22;8427;52.204;7.202;2023-07-29T00:28:05;17.40;87.80
16627;DHT22;8427;52.204;7.202;2023-07-29T00:30:33;17.50;87.90
16627;DHT22;8427;52.204;7.202;2023-07-29T00:33:02;17.50;88.00
16627;DHT22;8427;52.204;7.202;2023-07-29T00:35:30;17.40;88.00
16627;DHT22;8427;52.204;7.202;2023-07-29T00:37:58;17.30;88.10
16627;DHT22;8427;52.204;7.202;2023-07-29T00:40:28;17.30;88.30
16627;DHT22;8427;52.204;7.202;2023-07-29T00:42:56;17.30;88.30
16627;DHT22;8427;52.204;7.202;2023-07-29T00:45:25;17.30;88.40
16627;DHT22;8427;52.204;7.202;2023-07-29T00:47:53;17.20;88.20
16627;DHT22;8427;52.204;7.202;2023-07-29T00:50:23;17.20;88.20
16627;DHT22;8427;52.204;7.202;2023-07-29T00:52:51;17.10;88.40
16627;DHT22;8427;52.204;7.202;2023-07-29T00:55:19;17.10;88.50
16627;DHT22;8427;52.204;7.202;2023-07-29T00:57:47;17.10;88.70
16627;DHT22;8427;52.204;7.202;2023-07-29T01:00:18;17.00;88.60
16627;DHT22;8427;52.204;7.202;2023-07-29T01:02:46;17.10;88.80
16627;DHT22;8427;52.204;7.202;2023-07-29T01:05:16;17.10;88.80
16627;DHT22;8427;52.204;7.202;2023-07-29T01:07:51;17.10;88.60
16627;DHT22;8427;52.204;7.202;2023-07-29T01:10:30;17.00;88.70
16627;DHT22;8427;52.204;7.202;2023-07-29T01:13:06;17.10;88.70
16627;DHT22;8427;52.204;7.202;2023-07-29T01:15:43;17.10;88.90
16627;DHT22;8427;52.204;7.202;2023-07-29T01:18:18;17.20;88.70
16627;DHT22;8427;52.204;7.202;2023-07-29T01:20:48;17.20;88.70
16627;DHT22;8427;52.204;7.202;2023-07-29T01:23:24;17.30;88.90
16627;DHT22;8427;52.204;7.202;2023-07-29T01:25:52;17.30;89.00
16627;DHT22;8427;52.204;7.202;2023-07-29T01:28:20;17.20;89.00
16627;DHT22;8427;52.204;7.202;2023-07-29T01:30:51;17.30;89.10
16627;DHT22;8427;52.204;7.202;2023-07-29T01:33:25;17.40;89.30
16627;DHT22;8427;52.204;7.202;2023-07-29T01:35:58;17.50;90.00
16627;DHT22;8427;52.204;7.202;2023-07-29T01:38:33;17.70;90.30
16627;DHT22;8427;52.204;7.202;2023-07-29T01:41:02;17.70;90.30
16627;DHT22;8427;52.204;7.202;2023-07-29T01:43:31;17.90;90.50
16627;DHT22;8427;52.204;7.202;2023-07-29T01:46:00;18.00;90.50
16627;DHT22;8427;52.204;7.202;2023-07-29T01:48:28;18.00;90.90
16627;DHT22;8427;52.204;7.202;2023-07-29T01:50:57;18.10;91.00
16627;DHT22;8427;52.204;7.202;2023-07-29T01:53:25;18.20;90.90
16627;DHT22;8427;52.204;7.202;2023-07-29T01:55:54;18.30;91.00
16627;DHT22;8427;52.204;7.202;2023-07-29T01:58:23;18.20;90.80
16627;DHT22;8427;52.204;7.202;2023-07-29T02:00:51;18.40;90.90
16627;DHT22;8427;52.204;7.202;2023-07-29T02:03:19;18.40;90.80
16627;DHT22;8427;52.204;7.202;2023-07-29T02:05:47;18.40;90.70
16627;DHT22;8427;52.204;7.202;2023-07-29T02:08:15;18.40;90.70
16627;DHT22;8427;52.204;7.202;2023-07-29T02:10:43;18.40;90.70
16627;DHT22;8427;52.204;7.202;2023-07-29T02:13:13;18.40;90.70
16627;DHT22;8427;52.204;7.202;2023-07-29T02:15:41;18.40;90.60
16627;DHT22;8427;52.204;7.202;2023-07-29T02:18:09;18.40;90.60
16627;DHT22;8427;52.204;7.202;2023-07-29T02:20:37;18.30;90.70
16627;DHT22;8427;52.204;7.202;2023-07-29T02:23:05;18.40;90.70
16627;DHT22;8427;52.204;7.202;2023-07-29T02:25:35;18.40;90.80
16627;DHT22;8427;52.204;7.202;2023-07-29T02:28:03;18.40;90.80
16627;DHT22;8427;52.204;7.202;2023-07-29T02:30:33;18.60;90.70
16627;DHT22;8427;52.204;7.202;2023-07-29T02:33:01;18.50;90.70
16627;DHT22;8427;52.204;7.202;2023-07-29T02:35:29;18.50;90.80
16627;DHT22;8427;52.204;7.202;2023-07-29T02:37:57;18.50;90.70
16627;DHT22;8427;52.204;7.202;2023-07-29T02:40:25;18.50;90.80
16627;DHT22;8427;52.204;7.202;2023-07-29T02:42:53;18.50;90.60
16627;DHT22;8427;52.204;7.202;2023-07-29T02:45:21;18.50;90.80
16627;DHT22;8427;52.204;7.202;2023-07-29T02:47:51;18.60;90.80
16627;DHT22;8427;52.204;7.202;2023-07-29T02:50:20;18.70;90.80
16627;DHT22;8427;52.204;7.202;2023-07-29T02:52:48;18.70;90.60
16627;DHT22;8427;52.204;7.202;2023-07-29T02:55:17;18.70;90.60
16627;DHT22;8427;52.204;7.202;2023-07-29T02:57:45;18.80;90.50
16627;DHT22;8427;52.204;7.202;2023-07-29T03:00:13;18.80;90.30
16627;DHT22;8427;52.204;7.202;2023-07-29T03:02:42;18.80;90.30
16627;DHT22;8427;52.204;7.202;2023-07-29T03:05:11;18.80;90.40
16627;DHT22;8427;52.204;7.202;2023-07-29T03:07:39;18.80;90.10
16627;DHT22;8427;52.204;7.202;2023-07-29T03:10:07;18.80;90.10
16627;DHT22;8427;52.204;7.202;2023-07-29T03:12:35;18.80;90.20
16627;DHT22;8427;52.204;7.202;2023-07-29T03:15:04;18.70;90.20
16627;DHT22;8427;52.204;7.202;2023-07-29T03:17:32;18.70;90.30
16627;DHT22;8427;52.204;7.202;2023-07-29T03:20:00;18.80;90.10
16627;DHT22;8427;52.204;7.202;2023-07-29T03:22:30;18.80;90.20
16627;DHT22;8427;52.204;7.202;2023-07-29T03:24:58;18.70;90.20
16627;DHT22;8427;52.204;7.202;2023-07-29T03:27:26;18.80;90.10
16627;DHT22;8427;52.204;7.202;2023-07-29T03:29:54;18.80;90.00
16627;DHT22;8427;52.204;7.202;2023-07-29T03:32:22;18.80;90.20
16627;DHT22;8427;52.204;7.202;2023-07-29T03:34:50;18.80;90.10
16627;DHT22;8427;52.204;7.202;2023-07-29T03:37:17;18.80;89.80
16627;DHT22;8427;52.204;7.202;2023-07-29T03:39:47;18.80;89.90
16627;DHT22;8427;52.204;7.202;2023-07-29T03:42:15;18.70;89.90
16627;DHT22;8427;52.204;7.202;2023-07-29T03:44:43;18.70;89.90
16627;DHT22;8427;52.204;7.202;2023-07-29T03:47:10;18.70;90.00
16627;DHT22;8427;52.204;7.202;2023-07-29T03:49:38;18.70;90.00
16627;DHT22;8427;52.204;7.202;2023-07-29T03:52:06;18.70;90.00
16627;DHT22;8427;52.204;7.202;2023-07-29T03:54:34;18.70;89.90
16627;DHT22;8427;52.204;7.202;2023-07-29T03:57:05;18.70;90.10
16627;DHT22;8427;52.204;7.202;2023-07-29T03:59:32;18.70;90.00
16627;DHT22;8427;52.204;7.202;2023-07-29T04:02:01;18.60;90.10
16627;DHT22;8427;52.204;7.202;2023-07-29T04:04:29;18.60;90.10
16627;DHT22;8427;52.204;7.202;2023-07-29T04:06:57;18.70;90.10
16627;DHT22;8427;52.204;7.202;2023-07-29T04:09:25;18.60;90.10
16627;DHT22;8427;52.204;7.202;2023-07-29T04:11:53;18.50;90.10
16627;DHT22;8427;52.204;7.202;2023-07-29T04:14:23;18.50;90.20
16627;DHT22;8427;52.204;7.202;2023-07-29T04:16:50;18.40;90.30
16627;DHT22;8427;52.204;7.202;2023-07-29T04:19:18;18.50;90.30
16627;DHT22;8427;52.204;7.202;2023-07-29T04:21:46;18.50;90.40
16627;DHT22;8427;52.204;7.202;2023-07-29T04:24:14;18.50;90.40
16627;DHT22;8427;52.204;7.202;2023-07-29T04:26:42;18.50;90.30
16627;DHT22;8427;52.204;7.202;2023-07-29T04:29:10;18.60;90.40
16627;DHT22;8427;52.204;7.202;2023-07-29T04:31:39;18.60;90.30
16627;DHT22;8427;52.204;7.202;2023-07-29T04:34:07;18.50;90.30
16627;DHT22;8427;52.204;7.202;2023-07-29T04:36:35;18.60;90.40
16627;DHT22;8427;52.204;7.202;2023-07-29T04:39:03;18.70;90.30
16627;DHT22;8427;52.204;7.202;2023-07-29T04:41:32;18.60;90.30
16627;DHT22;8427;52.204;7.202;2023-07-29T04:44:00;18.70;90.40
16627;DHT22;8427;52.204;7.202;2023-07-29T04:46:28;18.80;90.20
16627;DHT22;8427;52.204;7.202;2023-07-29T04:48:57;18.80;90.10
16627;DHT22;8427;52.204;7.202;2023-07-29T04:51:25;18.80;90.00
16627;DHT22;8427;52.204;7.202;2023-07-29T04:53:53;18.80;90.00
16627;DHT22;8427;52.204;7.202;2023-07-29T04:56:21;18.90;89.90
16627;DHT22;8427;52.204;7.202;2023-07-29T04:58:49;18.90;89.70
16627;DHT22;8427;52.204;7.202;2023-07-29T05:01:17;18.90;89.60
16627;DHT22;8427;52.204;7.202;2023-07-29T05:03:45;19.00;89.50
16627;DHT22;8427;52.204;7.202;2023-07-29T05:06:14;19.00;89.50
16627;DHT22;8427;52.204;7.202;2023-07-29T05:08:42;19.00;89.40
16627;DHT22;8427;52.204;7.202;2023-07-29T05:11:10;18.90;89.50
16627;DHT22;8427;52.204;7.202;2023-07-29T05:13:37;19.10;89.60
16627;DHT22;8427;52.204;7.202;2023-07-29T05:16:05;19.00;89.40
16627;DHT22;8427;52.204;7.202;2023-07-29T05:18:33;19.10;89.40
16627;DHT22;8427;52.204;7.202;2023-07-29T05:21:01;19.10;89.30
16627;DHT22;8427;52.204;7.202;2023-07-29T05:23:30;19.00;89.30
16627;DHT22;8427;52.204;7.202;2023-07-29T05:25:58;19.10;89.40
16627;DHT22;8427;52.204;7.202;2023-07-29T05:28:25;19.20;89.30
16627;DHT22;8427;52.204;7.202;2023-07-29T05:30:53;19.20;89.20
16627;DHT22;8427;52.204;7.202;2023-07-29T05:33:21;19.20;89.10
16627;DHT22;8427;52.204;7.202;2023-07-29T05:35:49;19.30;89.10
16627;DHT22;8427;52.204;7.202;2023-07-29T05:38:17;19.30;88.90
16627;DHT22;8427;52.204;7.202;2023-07-29T05:40:48;19.40;88.50
16627;DHT22;8427;52.204;7.202;2023-07-29T05:43:15;19.40;88.50
16627;DHT22;8427;52.204;7.202;2023-07-29T05:45:43;19.50;88.60
16627;DHT22;8427;52.204;7.202;2023-07-29T05:50:48;19.50;88.30
16627;DHT22;8427;52.204;7.202;2023-07-29T05:53:17;19.60;87.90
16627;DHT22;8427;52.204;7.202;2023-07-29T05:55:46;19.70;87.80
16627;DHT22;8427;52.204;7.202;2023-07-29T05:58:14;19.80;87.60
16627;DHT22;8427;52.204;7.202;2023-07-29T06:00:42;19.70;87.30
16627;DHT22;8427;52.204;7.202;2023-07-29T06:03:10;19.90;86.90
16627;DHT22;8427;52.204;7.202;2023-07-29T06:05:39;19.70;86.90
16627;DHT22;8427;52.204;7.202;2023-07-29T06:08:07;19.80;86.80
16627;DHT22;8427;52.204;7.202;2023-07-29T06:10:36;19.70;86.90
16627;DHT22;8427;52.204;7.202;2023-07-29T06:13:05;19.70;86.80
16627;DHT22;8427;52.204;7.202;2023-07-29T06:15:33;19.70;86.90
16627;DHT22;8427;52.204;7.202;2023-07-29T06:18:01;19.80;86.70
16627;DHT22;8427;52.204;7.202;2023-07-29T06:20:29;19.70;85.90
16627;DHT22;8427;52.204;7.202;2023-07-29T06:22:57;19.70;85.40
16627;DHT22;8427;52.204;7.202;2023-07-29T06:25:26;19.80;85.30
16627;DHT22;8427;52.204;7.202;2023-07-29T06:27:54;19.80;83.70
16627;DHT22;8427;52.204;7.202;2023-07-29T06:30:23;19.80;82.20
16627;DHT22;8427;52.204;7.202;2023-07-29T06:32:51;19.70;81.70
16627;DHT22;8427;52.204;7.202;2023-07-29T06:35:19;19.60;81.90
16627;DHT22;8427;52.204;7.202;2023-07-29T06:37:47;19.60;81.60
16627;DHT22;8427;52.204;7.202;2023-07-29T06:40:16;19.70;80.80
16627;DHT22;8427;52.204;7.202;2023-07-29T06:42:43;19.80;80.70
16627;DHT22;8427;52.204;7.202;2023-07-29T06:45:12;19.80;79.60
16627;DHT22;8427;52.204;7.202;2023-07-29T06:47:44;19.80;78.90
16627;DHT22;8427;52.204;7.202;2023-07-29T06:50:12;19.70;78.40
16627;DHT22;8427;52.204;7.202;2023-07-29T06:52:40;19.60;78.30
16627;DHT22;8427;52.204;7.202;2023-07-29T06:55:08;19.70;77.90
16627;DHT22;8427;52.204;7.202;2023-07-29T06:57:37;19.80;77.90
16627;DHT22;8427;52.204;7.202;2023-07-29T07:00:06;19.90;77.60
16627;DHT22;8427;52.204;7.202;2023-07-29T07:02:36;19.90;77.90
16627;DHT22;8427;52.204;7.202;2023-07-29T07:05:06;19.80;76.40
16627;DHT22;8427;52.204;7.202;2023-07-29T07:07:33;19.80;76.10
16627;DHT22;8427;52.204;7.202;2023-07-29T07:10:01;19.70;76.30
16627;DHT22;8427;52.204;7.202;2023-07-29T07:12:29;19.50;76.40
16627;DHT22;8427;52.204;7.202;2023-07-29T07:14:57;19.60;77.00
16627;DHT22;8427;52.204;7.202;2023-07-29T07:17:25;19.70;77.00
16627;DHT22;8427;52.204;7.202;2023-07-29T07:19:53;19.80;76.40
16627;DHT22;8427;52.204;7.202;2023-07-29T07:22:23;19.90;75.80
16627;DHT22;8427;52.204;7.202;2023-07-29T07:24:51;19.90;75.90
16627;DHT22;8427;52.204;7.202;2023-07-29T07:27:19;20.00;75.70
16627;DHT22;8427;52.204;7.202;2023-07-29T07:29:47;20.10;75.60
16627;DHT22;8427;52.204;7.202;2023-07-29T07:32:15;20.10;74.80
16627;DHT22;8427;52.204;7.202;2023-07-29T07:34:43;20.30;74.80
16627;DHT22;8427;52.204;7.202;2023-07-29T07:37:11;20.40;75.00
16627;DHT22;8427;52.204;7.202;2023-07-29T07:39:41;20.50;73.30
16627;DHT22;8427;52.204;7.202;2023-07-29T07:42:09;20.60;72.60
16627;DHT22;8427;52.204;7.202;2023-07-29T07:44:37;20.70;73.50
16627;DHT22;8427;52.204;7.202;2023-07-29T07:47:05;20.70;72.40
16627;DHT22;8427;52.204;7.202;2023-07-29T07:49:33;20.70;72.60
16627;DHT22;8427;52.204;7.202;2023-07-29T07:52:01;20.80;72.40
16627;DHT22;8427;52.204;7.202;2023-07-29T07:54:29;20.70;72.00
16627;DHT22;8427;52.204;7.202;2023-07-29T07:56:58;20.70;72.70
16627;DHT22;8427;52.204;7.202;2023-07-29T07:59:26;20.80;72.30
16627;DHT22;8427;52.204;7.202;2023-07-29T08:01:53;20.80;73.00
16627;DHT22;8427;52.204;7.202;2023-07-29T08:04:21;20.70;73.40
16627;DHT22;8427;52.204;7.202;2023-07-29T08:06:49;20.80;73.80
16627;DHT22;8427;52.204;7.202;2023-07-29T08:09:17;20.90;72.20
16627;DHT22;8427;52.204;7.202;2023-07-29T08:11:44;20.80;72.40
16627;DHT22;8427;52.204;7.202;2023-07-29T08:14:13;20.70;72.60
16627;DHT22;8427;52.204;7.202;2023-07-29T08:16:41;20.70;73.20
16627;DHT22;8427;52.204;7.202;2023-07-29T08:19:09;20.80;73.30
16627;DHT22;8427;52.204;7.202;2023-07-29T08:21:37;20.70;72.70
16627;DHT22;8427;52.204;7.202;2023-07-29T08:24:05;20.60;73.50
16627;DHT22;8427;52.204;7.202;2023-07-29T08:26:33;20.60;73.00
16627;DHT22;8427;52.204;7.202;2023-07-29T08:29:02;20.40;74.20
16627;DHT22;8427;52.204;7.202;2023-07-29T08:31:31;20.40;74.00
16627;DHT22;8427;52.204;7.202;2023-07-29T08:34:00;20.30;75.20
16627;DHT22;8427;52.204;7.202;2023-07-29T08:36:28;20.40;75.10
16627;DHT22;8427;52.204;7.202;2023-07-29T08:38:55;20.50;73.70
16627;DHT22;8427;52.204;7.202;2023-07-29T08:41:25;20.80;74.20
16627;DHT22;8427;52.204;7.202;2023-07-29T08:43:56;20.80;73.10
16627;DHT22;8427;52.204;7.202;2023-07-29T08:46:27;21.00;73.60
16627;DHT22;8427;52.204;7.202;2023-07-29T08:48:57;21.00;72.70
16627;DHT22;8427;52.204;7.202;2023-07-29T08:51:26;21.10;72.40
16627;DHT22;8427;52.204;7.202;2023-07-29T08:53:54;21.30;72.60
16627;DHT22;8427;52.204;7.202;2023-07-29T08:56:22;21.40;72.80
16627;DHT22;8427;52.204;7.202;2023-07-29T08:58:50;21.50;72.90
16627;DHT22;8427;52.204;7.202;2023-07-29T09:01:19;21.80;70.30
16627;DHT22;8427;52.204;7.202;2023-07-29T09:03:47;21.80;69.90
16627;DHT22;8427;52.204;7.202;2023-07-29T09:06:16;21.90;69.70
16627;DHT22;8427;52.204;7.202;2023-07-29T09:08:44;21.90;68.50
16627;DHT22;8427;52.204;7.202;2023-07-29T09:11:13;21.90;68.50
16627;DHT22;8427;52.204;7.202;2023-07-29T09:13:42;22.10;68.60
16627;DHT22;8427;52.204;7.202;2023-07-29T09:16:10;22.20;68.70
16627;DHT22;8427;52.204;7.202;2023-07-29T09:18:38;22.50;68.20
16627;DHT22;8427;52.204;7.202;2023-07-29T09:21:06;22.70;66.80
16627;DHT22;8427;52.204;7.202;2023-07-29T09:23:42;22.60;65.60
16627;DHT22;8427;52.204;7.202;2023-07-29T09:26:10;22.90;66.00
16627;DHT22;8427;52.204;7.202;2023-07-29T09:28:38;23.00;66.40
16627;DHT22;8427;52.204;7.202;2023-07-29T09:31:06;23.10;65.60
16627;DHT22;8427;52.204;7.202;2023-07-29T09:33:35;23.30;64.50
16627;DHT22;8427;52.204;7.202;2023-07-29T09:36:07;23.30;64.40
16627;DHT22;8427;52.204;7.202;2023-07-29T09:38:37;23.40;64.90
16627;DHT22;8427;52.204;7.202;2023-07-29T09:41:06;23.30;63.40
16627;DHT22;8427;52.204;7.202;2023-07-29T09:43:34;23.50;63.00
16627;DHT22;8427;52.204;7.202;2023-07-29T09:46:03;23.40;61.80
16627;DHT22;8427;52.204;7.202;2023-07-29T09:48:32;23.40;62.30
16627;DHT22;8427;52.204;7.202;2023-07-29T09:51:01;23.20;63.60
16627;DHT22;8427;52.204;7.202;2023-07-29T09:53:39;23.10;63.10
16627;DHT22;8427;52.204;7.202;2023-07-29T09:56:08;23.00;64.20
16627;DHT22;8427;52.204;7.202;2023-07-29T09:58:36;23.00;65.00
16627;DHT22;8427;52.204;7.202;2023-07-29T10:01:06;22.90;63.80
16627;DHT22;8427;52.204;7.202;2023-07-29T10:03:34;22.80;63.50
16627;DHT22;8427;52.204;7.202;2023-07-29T10:06:04;22.80;65.80
16627;DHT22;8427;52.204;7.202;2023-07-29T10:08:33;22.90;65.70
16627;DHT22;8427;52.204;7.202;2023-07-29T10:11:05;23.20;64.10
16627;DHT22;8427;52.204;7.202;2023-07-29T10:13:35;23.40;64.10
16627;DHT22;8427;52.204;7.202;2023-07-29T10:16:04;23.50;64.30
16627;DHT22;8427;52.204;7.202;2023-07-29T10:18:32;23.50;63.70
16627;DHT22;8427;52.204;7.202;2023-07-29T10:21:01;23.50;62.90
16627;DHT22;8427;52.204;7.202;2023-07-29T10:23:32;23.50;62.60
16627;DHT22;8427;52.204;7.202;2023-07-29T10:26:02;23.30;62.50
16627;DHT22;8427;52.204;7.202;2023-07-29T10:28:31;23.10;62.80
16627;DHT22;8427;52.204;7.202;2023-07-29T10:31:02;23.30;63.50
16627;DHT22;8427;52.204;7.202;2023-07-29T10:33:31;23.00;64.10
16627;DHT22;8427;52.204;7.202;2023-07-29T10:36:01;23.10;64.10
16627;DHT22;8427;52.204;7.202;2023-07-29T10:38:29;23.00;63.40
16627;DHT22;8427;52.204;7.202;2023-07-29T10:40:58;23.10;64.30
16627;DHT22;8427;52.204;7.202;2023-07-29T10:43:28;23.40;63.10
16627;DHT22;8427;52.204;7.202;2023-07-29T10:46:15;23.50;62.00
16627;DHT22;8427;52.204;7.202;2023-07-29T10:48:44;23.30;63.10
16627;DHT22;8427;52.204;7.202;2023-07-29T10:51:34;23.20;63.80
16627;DHT22;8427;52.204;7.202;2023-07-29T10:54:02;23.30;64.10
16627;DHT22;8427;52.204;7.202;2023-07-29T10:56:32;23.40;64.10
16627;DHT22;8427;52.204;7.202;2023-07-29T10:59:22;23.40;62.70
16627;DHT22;8427;52.204;7.202;2023-07-29T11:01:53;23.50;63.80
16627;DHT22;8427;52.204;7.202;2023-07-29T11:04:22;23.60;63.20
16627;DHT22;8427;52.204;7.202;2023-07-29T11:09:40;23.90;61.40
16627;DHT22;8427;52.204;7.202;2023-07-29T11:14:51;23.90;60.90
16627;DHT22;8427;52.204;7.202;2023-07-29T11:17:20;23.90;61.50
16627;DHT22;8427;52.204;7.202;2023-07-29T11:19:48;24.00;60.30
16627;DHT22;8427;52.204;7.202;2023-07-29T11:22:17;23.90;59.80
16627;DHT22;8427;52.204;7.202;2023-07-29T11:24:45;23.80;60.50
16627;DHT22;8427;52.204;7.202;2023-07-29T11:27:13;23.90;59.40
16627;DHT22;8427;52.204;7.202;2023-07-29T11:29:41;23.90;60.60
16627;DHT22;8427;52.204;7.202;2023-07-29T11:32:10;23.90;60.90
16627;DHT22;8427;52.204;7.202;2023-07-29T11:34:40;23.90;59.70
16627;DHT22;8427;52.204;7.202;2023-07-29T11:37:10;24.00;61.30
16627;DHT22;8427;52.204;7.202;2023-07-29T11:39:39;24.10;61.30
16627;DHT22;8427;52.204;7.202;2023-07-29T11:42:10;24.10;62.10
16627;DHT22;8427;52.204;7.202;2023-07-29T11:44:38;24.10;61.50
16627;DHT22;8427;52.204;7.202;2023-07-29T11:47:06;24.30;63.40
16627;DHT22;8427;52.204;7.202;2023-07-29T11:49:34;24.30;59.00
16627;DHT22;8427;52.204;7.202;2023-07-29T11:52:06;24.60;58.30
16627;DHT22;8427;52.204;7.202;2023-07-29T11:54:35;24.80;57.60
16627;DHT22;8427;52.204;7.202;2023-07-29T11:57:03;24.80;57.60
16627;DHT22;8427;52.204;7.202;2023-07-29T11:59:32;24.60;58.00
16627;DHT22;8427;52.204;7.202;2023-07-29T12:02:00;24.90;59.40
16627;DHT22;8427;52.204;7.202;2023-07-29T12:04:29;25.00;57.30
16627;DHT22;8427;52.204;7.202;2023-07-29T12:06:57;25.00;56.40
16627;DHT22;8427;52.204;7.202;2023-07-29T12:09:26;24.80;56.90
16627;DHT22;8427;52.204;7.202;2023-07-29T12:11:55;24.70;57.40
16627;DHT22;8427;52.204;7.202;2023-07-29T12:14:25;24.60;58.60
16627;DHT22;8427;52.204;7.202;2023-07-29T12:16:53;24.50;58.00
16627;DHT22;8427;52.204;7.202;2023-07-29T12:19:21;24.60;60.70
16627;DHT22;8427;52.204;7.202;2023-07-29T12:21:49;24.60;59.20
16627;DHT22;8427;52.204;7.202;2023-07-29T12:24:17;24.70;58.20
16627;DHT22;8427;52.204;7.202;2023-07-29T12:26:46;24.80;58.30
16627;DHT22;8427;52.204;7.202;2023-07-29T12:29:15;24.60;57.40
16627;DHT22;8427;52.204;7.202;2023-07-29T12:31:43;24.60;59.80
16627;DHT22;8427;52.204;7.202;2023-07-29T12:34:16;24.70;57.30
16627;DHT22;8427;52.204;7.202;2023-07-29T12:36:45;24.70;58.50
16627;DHT22;8427;52.204;7.202;2023-07-29T12:39:17;24.60;57.70
16627;DHT22;8427;52.204;7.202;2023-07-29T12:41:46;24.80;58.00
16627;DHT22;8427;52.204;7.202;2023-07-29T12:44:14;25.00;59.20
16627;DHT22;8427;52.204;7.202;2023-07-29T12:46:42;25.20;58.70
16627;DHT22;8427;52.204;7.202;2023-07-29T12:49:10;25.60;57.70
16627;DHT22;8427;52.204;7.202;2023-07-29T12:51:38;25.50;57.00
16627;DHT22;8427;52.204;7.202;2023-07-29T12:54:06;25.00;55.90
16627;DHT22;8427;52.204;7.202;2023-07-29T12:56:34;24.80;57.40
16627;DHT22;8427;52.204;7.202;2023-07-29T12:59:05;24.70;58.80
16627;DHT22;8427;52.204;7.202;2023-07-29T13:01:33;24.30;58.00
16627;DHT22;8427;52.204;7.202;2023-07-29T13:04:00;24.10;58.20
16627;DHT22;8427;52.204;7.202;2023-07-29T13:06:28;24.10;59.50
16627;DHT22;8427;52.204;7.202;2023-07-29T13:08:58;24.00;58.00
16627;DHT22;8427;52.204;7.202;2023-07-29T13:11:26;23.70;59.40
16627;DHT22;8427;52.204;7.202;2023-07-29T13:13:54;23.80;59.80
16627;DHT22;8427;52.204;7.202;2023-07-29T13:16:24;23.80;60.20
16627;DHT22;8427;52.204;7.202;2023-07-29T13:18:52;23.70;61.30
16627;DHT22;8427;52.204;7.202;2023-07-29T13:21:19;23.50;60.70
16627;DHT22;8427;52.204;7.202;2023-07-29T13:23:47;23.40;61.20
16627;DHT22;8427;52.204;7.202;2023-07-29T13:26:14;23.30;62.10
16627;DHT22;8427;52.204;7.202;2023-07-29T13:28:43;23.20;62.70
16627;DHT22;8427;52.204;7.202;2023-07-29T13:31:11;23.10;63.50
16627;DHT22;8427;52.204;7.202;2023-07-29T13:33:41;23.00;63.30
16627;DHT22;8427;52.204;7.202;2023-07-29T13:36:08;22.90;63.80
16627;DHT22;8427;52.204;7.202;2023-07-29T13:38:36;22.50;66.50
16627;DHT22;8427;52.204;7.202;2023-07-29T13:41:04;22.20;70.80
16627;DHT22;8427;52.204;7.202;2023-07-29T13:43:32;21.70;72.70
16627;DHT22;8427;52.204;7.202;2023-07-29T13:45:59;21.40;76.60
16627;DHT22;8427;52.204;7.202;2023-07-29T13:48:28;21.00;76.50
16627;DHT22;8427;52.204;7.202;2023-07-29T13:50:57;20.80;79.00
16627;DHT22;8427;52.204;7.202;2023-07-29T13:53:24;20.70;78.60
16627;DHT22;8427;52.204;7.202;2023-07-29T13:55:52;20.70;80.40
16627;DHT22;8427;52.204;7.202;2023-07-29T13:58:20;20.70;81.00
16627;DHT22;8427;52.204;7.202;2023-07-29T14:00:48;20.60;81.80
16627;DHT22;8427;52.204;7.202;2023-07-29T14:03:15;20.70;82.60
16627;DHT22;8427;52.204;7.202;2023-07-29T14:05:43;20.90;83.20
16627;DHT22;8427;52.204;7.202;2023-07-29T14:08:12;21.00;82.50
16627;DHT22;8427;52.204;7.202;2023-07-29T14:10:40;21.40;82.50
16627;DHT22;8427;52.204;7.202;2023-07-29T14:13:08;21.70;81.40
16627;DHT22;8427;52.204;7.202;2023-07-29T14:15:35;21.90;79.40
16627;DHT22;8427;52.204;7.202;2023-07-29T14:18:03;22.40;78.90
16627;DHT22;8427;52.204;7.202;2023-07-29T14:20:31;22.70;76.40
16627;DHT22;8427;52.204;7.202;2023-07-29T14:22:59;22.90;72.90
16627;DHT22;8427;52.204;7.202;2023-07-29T14:25:28;22.80;73.50
16627;DHT22;8427;52.204;7.202;2023-07-29T14:27:56;22.80;72.60
16627;DHT22;8427;52.204;7.202;2023-07-29T14:30:24;22.80;72.70
16627;DHT22;8427;52.204;7.202;2023-07-29T14:32:52;22.90;72.20
16627;DHT22;8427;52.204;7.202;2023-07-29T14:35:19;22.90;70.90
16627;DHT22;8427;52.204;7.202;2023-07-29T14:37:47;22.90;71.20
16627;DHT22;8427;52.204;7.202;2023-07-29T14:40:15;22.80;69.30
16627;DHT22;8427;52.204;7.202;2023-07-29T14:42:44;23.00;69.80
16627;DHT22;8427;52.204;7.202;2023-07-29T14:45:12;23.00;69.30
16627;DHT22;8427;52.204;7.202;2023-07-29T14:47:40;23.00;67.30
16627;DHT22;8427;52.204;7.202;2023-07-29T14:50:08;23.00;68.70
16627;DHT22;8427;52.204;7.202;2023-07-29T14:52:35;23.30;69.10
16627;DHT22;8427;52.204;7.202;2023-07-29T14:55:04;23.40;67.10
16627;DHT22;8427;52.204;7.202;2023-07-29T14:57:31;23.30;66.30
16627;DHT22;8427;52.204;7.202;2023-07-29T15:00:01;23.30;66.30
16627;DHT22;8427;52.204;7.202;2023-07-29T15:02:30;23.10;66.30
16627;DHT22;8427;52.204;7.202;2023-07-29T15:04:58;23.10;66.40
16627;DHT22;8427;52.204;7.202;2023-07-29T15:07:26;23.20;67.30
16627;DHT22;8427;52.204;7.202;2023-07-29T15:09:53;23.10;65.80
16627;DHT22;8427;52.204;7.202;2023-07-29T15:12:21;23.20;67.30
16627;DHT22;8427;52.204;7.202;2023-07-29T15:14:49;23.40;64.60
16627;DHT22;8427;52.204;7.202;2023-07-29T15:17:18;23.50;65.40
16627;DHT22;8427;52.204;7.202;2023-07-29T15:19:46;23.50;64.40
16627;DHT22;8427;52.204;7.202;2023-07-29T15:22:16;23.20;64.60
16627;DHT22;8427;52.204;7.202;2023-07-29T15:24:44;23.40;66.10
16627;DHT22;8427;52.204;7.202;2023-07-29T15:27:12;23.50;65.70
16627;DHT22;8427;52.204;7.202;2023-07-29T15:29:55;23.50;64.50
16627;DHT22;8427;52.204;7.202;2023-07-29T15:32:24;23.60;63.80
16627;DHT22;8427;52.204;7.202;2023-07-29T15:34:52;23.50;63.20
16627;DHT22;8427;52.204;7.202;2023-07-29T15:37:19;23.60;63.60
16627;DHT22;8427;52.204;7.202;2023-07-29T15:39:47;23.60;62.00
16627;DHT22;8427;52.204;7.202;2023-07-29T15:42:15;23.70;63.30
16627;DHT22;8427;52.204;7.202;2023-07-29T15:44:42;24.20;61.40
16627;DHT22;8427;52.204;7.202;2023-07-29T15:47:10;24.20;61.20
16627;DHT22;8427;52.204;7.202;2023-07-29T15:49:40;24.30;59.30
16627;DHT22;8427;52.204;7.202;2023-07-29T15:52:08;24.70;59.60
16627;DHT22;8427;52.204;7.202;2023-07-29T15:54:38;25.00;57.80
16627;DHT22;8427;52.204;7.202;2023-07-29T15:57:06;24.80;58.40
16627;DHT22;8427;52.204;7.202;2023-07-29T15:59:34;24.80;60.30
16627;DHT22;8427;52.204;7.202;2023-07-29T16:02:02;25.20;57.80